Time;durP1;ratioP1;P1;durP2;ratioP2;P2;SDS_P1;SDS_P2;PMS_P1;PMS_P2;Temp;Humidity;BMP_temperature;BMP_pressure;BME280_temperature;BME280_humidity;BME280_pressure;Samples;Min_cycle;Max_cycle;Signal;HPM_P1;HPM_P2
2022/07/04 00:01:29;;;;;;;;;;;15.40;67.70;;;;;;5013679;28;19928;-90
2022/07/04 00:03:57;;;;;;;;;;;15.30;67.70;;;;;;5012612;28;19925;-91
2022/07/04 00:06:24;;;;;;;;;;;15.30;67.80;;;;;;5013718;28;19921;-89
2022/07/04 00:08:51;;;;;;;;;;;15.20;67.80;;;;;;5013767;28;19928;-90
2022/07/04 00:11:18;;;;;;;;;;;15.20;67.80;;;;;;5013604;28;19929;-90
2022/07/04 00:13:45;;;;;;;;;;;15.20;67.90;;;;;;5012121;28;19922;-90
2022/07/04 00:16:12;;;;;;;;;;;15.20;67.90;;;;;;5028985;28;19921;-90
2022/07/04 00:18:39;;;;;;;;;;;15.10;67.90;;;;;;5029106;28;19922;-90
2022/07/04 00:21:05;;;;;;;;;;;15.10;68.00;;;;;;5012575;28;20397;-91
2022/07/04 00:23:32;;;;;;;;;;;15.10;68.00;;;;;;5012568;28;19922;-90
2022/07/04 00:25:59;;;;;;;;;;;15.10;68.00;;;;;;5012876;28;19925;-90
2022/07/04 00:28:26;;;;;;;;;;;15.00;68.00;;;;;;5013011;28;20400;-90
2022/07/04 00:30:53;;;;;;;;;;;15.00;68.00;;;;;;5012509;28;19921;-90
2022/07/04 00:33:20;;;;;;;;;;;15.00;68.10;;;;;;5013472;28;20389;-90
2022/07/04 00:35:46;;;;;;;;;;;14.90;68.10;;;;;;5012115;28;19921;-90
2022/07/04 00:38:13;;;;;;;;;;;14.90;68.10;;;;;;5011710;28;19929;-90
2022/07/04 00:40:40;;;;;;;;;;;14.90;68.20;;;;;;5012659;28;20354;-90
2022/07/04 00:43:07;;;;;;;;;;;14.90;68.20;;;;;;5011858;28;19921;-91
2022/07/04 00:45:34;;;;;;;;;;;14.90;68.20;;;;;;5013126;28;19925;-90
2022/07/04 00:48:01;;;;;;;;;;;14.80;68.30;;;;;;5012589;28;19921;-90
2022/07/04 00:50:28;;;;;;;;;;;14.80;68.40;;;;;;5012671;28;19921;-90
2022/07/04 00:52:54;;;;;;;;;;;14.80;68.40;;;;;;5012874;28;19930;-91
2022/07/04 00:55:22;;;;;;;;;;;14.80;68.40;;;;;;5012993;28;19929;-90
2022/07/04 00:57:49;;;;;;;;;;;14.80;68.50;;;;;;5013082;28;19930;-90
2022/07/04 01:00:18;;;;;;;;;;;14.70;68.50;;;;;;5013127;28;19922;-90
2022/07/04 01:02:45;;;;;;;;;;;14.70;68.60;;;;;;5011405;28;19925;-90
2022/07/04 01:05:12;;;;;;;;;;;14.70;68.70;;;;;;5012904;28;19930;-89
2022/07/04 01:07:40;;;;;;;;;;;14.60;68.80;;;;;;5012576;28;20374;-90
2022/07/04 01:10:07;;;;;;;;;;;14.60;69.00;;;;;;5012832;28;19921;-90
2022/07/04 01:12:34;;;;;;;;;;;14.60;69.20;;;;;;5012644;28;19921;-89
2022/07/04 01:15:01;;;;;;;;;;;14.60;69.50;;;;;;5011246;28;19922;-90
2022/07/04 01:17:27;;;;;;;;;;;14.60;69.70;;;;;;5016549;28;19925;-90
2022/07/04 01:19:54;;;;;;;;;;;14.60;70.10;;;;;;5016673;28;19928;-91
2022/07/04 01:22:22;;;;;;;;;;;14.60;70.40;;;;;;5016324;28;19925;-89
2022/07/04 01:24:49;;;;;;;;;;;14.60;70.70;;;;;;5016468;28;19960;-90
2022/07/04 01:27:17;;;;;;;;;;;14.60;70.90;;;;;;5014942;28;19921;-89
2022/07/04 01:29:44;;;;;;;;;;;14.60;71.20;;;;;;5016139;28;20274;-89
2022/07/04 01:32:11;;;;;;;;;;;14.60;71.40;;;;;;5016158;28;19929;-90
2022/07/04 01:34:38;;;;;;;;;;;14.60;71.60;;;;;;5015230;28;19929;-90
2022/07/04 01:37:09;;;;;;;;;;;14.70;71.80;;;;;;5015951;28;19921;-89
2022/07/04 01:39:37;;;;;;;;;;;14.70;71.90;;;;;;5016182;28;20317;-89
2022/07/04 01:42:04;;;;;;;;;;;14.70;72.00;;;;;;5015848;28;19925;-89
2022/07/04 01:44:31;;;;;;;;;;;14.80;72.10;;;;;;5015691;28;20348;-89
2022/07/04 01:46:58;;;;;;;;;;;14.70;72.20;;;;;;5015943;28;19922;-89
2022/07/04 01:49:25;;;;;;;;;;;14.80;72.30;;;;;;5015017;28;19922;-89
2022/07/04 01:51:51;;;;;;;;;;;14.80;72.40;;;;;;5016175;28;19929;-90
2022/07/04 01:54:18;;;;;;;;;;;14.90;72.40;;;;;;5015123;28;19921;-90
2022/07/04 01:56:45;;;;;;;;;;;14.90;72.50;;;;;;5015591;28;19921;-90
2022/07/04 01:59:12;;;;;;;;;;;14.90;72.50;;;;;;5015648;28;20320;-90
2022/07/04 02:01:39;;;;;;;;;;;14.90;72.50;;;;;;5014540;28;19951;-89
2022/07/04 02:04:06;;;;;;;;;;;14.90;72.50;;;;;;5014636;28;20012;-89
2022/07/04 02:06:33;;;;;;;;;;;14.90;72.60;;;;;;5015829;28;19983;-89
2022/07/04 02:09:15;;;;;;;;;;;14.90;72.60;;;;;;5014070;28;19921;-90
2022/07/04 02:14:32;;;;;;;;;;;14.90;72.70;;;;;;5015130;28;19921;-89
2022/07/04 02:16:58;;;;;;;;;;;14.90;72.70;;;;;;5015501;28;19945;-90
2022/07/04 02:19:26;;;;;;;;;;;14.90;72.70;;;;;;4999894;28;19980;-90
2022/07/04 02:21:53;;;;;;;;;;;15.00;72.70;;;;;;5011469;28;19922;-90
2022/07/04 02:24:20;;;;;;;;;;;14.90;72.70;;;;;;5014861;28;19929;-90
2022/07/04 02:26:47;;;;;;;;;;;14.90;72.70;;;;;;5013570;28;19928;-90
2022/07/04 02:29:14;;;;;;;;;;;14.90;72.70;;;;;;5014600;28;19925;-90
2022/07/04 02:31:41;;;;;;;;;;;14.90;72.70;;;;;;5015435;28;19952;-90
2022/07/04 02:34:08;;;;;;;;;;;15.00;72.70;;;;;;5015133;28;19921;-91
2022/07/04 02:36:35;;;;;;;;;;;14.90;72.80;;;;;;5013998;28;19975;-90
2022/07/04 02:39:02;;;;;;;;;;;14.90;72.80;;;;;;5014487;28;19925;-89
2022/07/04 02:41:29;;;;;;;;;;;14.90;72.80;;;;;;5014885;28;19921;-90
2022/07/04 02:43:56;;;;;;;;;;;14.90;72.80;;;;;;5015040;28;19922;-90
2022/07/04 02:46:23;;;;;;;;;;;14.90;72.80;;;;;;5013189;28;19921;-90
2022/07/04 02:48:50;;;;;;;;;;;14.90;72.90;;;;;;5015176;28;19928;-90
2022/07/04 02:51:17;;;;;;;;;;;14.90;72.90;;;;;;5014618;28;19928;-90
2022/07/04 02:53:44;;;;;;;;;;;14.90;72.90;;;;;;5014140;28;19932;-89
2022/07/04 02:56:10;;;;;;;;;;;14.90;72.90;;;;;;5014742;28;19921;-90
2022/07/04 02:58:37;;;;;;;;;;;14.90;73.00;;;;;;5014367;28;20385;-91
2022/07/04 03:01:04;;;;;;;;;;;14.90;73.00;;;;;;5013345;28;19926;-90
2022/07/04 03:03:31;;;;;;;;;;;14.80;73.10;;;;;;5014790;28;19925;-90
2022/07/04 03:05:58;;;;;;;;;;;14.80;73.10;;;;;;5013200;28;20435;-90
2022/07/04 03:08:30;;;;;;;;;;;14.80;73.10;;;;;;5014368;28;20293;-89
2022/07/04 03:10:57;;;;;;;;;;;14.80;73.20;;;;;;5013386;28;19929;-90
2022/07/04 03:13:26;;;;;;;;;;;14.80;73.20;;;;;;5014329;28;19929;-90
2022/07/04 03:15:53;;;;;;;;;;;14.80;73.20;;;;;;5010273;28;19929;-90
2022/07/04 03:18:20;;;;;;;;;;;14.80;73.20;;;;;;5013571;28;19924;-90
2022/07/04 03:20:47;;;;;;;;;;;14.80;73.20;;;;;;5014132;28;19925;-89
2022/07/04 03:23:14;;;;;;;;;;;14.80;73.20;;;;;;5013144;28;19940;-89
2022/07/04 03:25:41;;;;;;;;;;;14.70;73.20;;;;;;5014192;28;19921;-90
2022/07/04 03:28:08;;;;;;;;;;;14.70;73.20;;;;;;5014232;28;19921;-90
2022/07/04 03:30:35;;;;;;;;;;;14.70;73.20;;;;;;5013540;28;20274;-90
2022/07/04 03:33:02;;;;;;;;;;;14.70;73.20;;;;;;5012921;28;19972;-90
2022/07/04 03:35:29;;;;;;;;;;;14.60;73.20;;;;;;5012233;28;19921;-89
2022/07/04 03:37:56;;;;;;;;;;;14.60;73.20;;;;;;5013940;28;19928;-90
2022/07/04 03:40:23;;;;;;;;;;;14.60;73.20;;;;;;5013079;28;19928;-89
2022/07/04 03:42:50;;;;;;;;;;;14.50;73.20;;;;;;5013023;28;19921;-89
2022/07/04 03:45:17;;;;;;;;;;;14.50;73.20;;;;;;5013893;28;19929;-89
2022/07/04 03:47:44;;;;;;;;;;;14.50;73.20;;;;;;5012409;28;19929;-89
2022/07/04 03:50:11;;;;;;;;;;;14.50;73.20;;;;;;5013570;28;19925;-90
2022/07/04 03:52:37;;;;;;;;;;;14.50;73.20;;;;;;5012552;28;19925;-90
2022/07/04 03:55:05;;;;;;;;;;;14.40;73.20;;;;;;5013632;28;19931;-90
2022/07/04 03:57:31;;;;;;;;;;;14.40;73.20;;;;;;5014030;28;19922;-89
2022/07/04 03:59:58;;;;;;;;;;;14.40;73.20;;;;;;5013311;28;19921;-90
2022/07/04 04:02:25;;;;;;;;;;;14.40;73.20;;;;;;5012332;28;19928;-90
2022/07/04 04:07:37;;;;;;;;;;;14.40;73.20;;;;;;4999387;28;19925;-90
2022/07/04 04:10:05;;;;;;;;;;;14.40;73.20;;;;;;5013545;28;19921;-90
2022/07/04 04:12:32;;;;;;;;;;;14.30;73.20;;;;;;5013459;28;19926;-89
2022/07/04 04:14:59;;;;;;;;;;;14.30;73.20;;;;;;5011799;28;19922;-89
2022/07/04 04:17:25;;;;;;;;;;;14.30;73.20;;;;;;5012127;28;20387;-90
2022/07/04 04:19:52;;;;;;;;;;;14.20;73.20;;;;;;5011761;28;19925;-89
2022/07/04 04:22:19;;;;;;;;;;;14.20;73.30;;;;;;5013112;28;19929;-89
2022/07/04 04:24:46;;;;;;;;;;;14.20;73.30;;;;;;5012323;28;19921;-91
2022/07/04 04:27:12;;;;;;;;;;;14.20;73.30;;;;;;5013097;28;19921;-89
2022/07/04 04:29:39;;;;;;;;;;;14.20;73.40;;;;;;5012781;28;19921;-90
2022/07/04 04:32:06;;;;;;;;;;;14.20;73.50;;;;;;5013047;28;19921;-89
2022/07/04 04:34:33;;;;;;;;;;;14.10;73.60;;;;;;5011415;28;19963;-89
2022/07/04 04:37:00;;;;;;;;;;;14.10;73.70;;;;;;5028598;28;19961;-89
2022/07/04 04:39:27;;;;;;;;;;;14.10;73.70;;;;;;5011916;28;19922;-89
2022/07/04 04:41:54;;;;;;;;;;;14.10;73.80;;;;;;5011449;28;19925;-90
2022/07/04 04:44:21;;;;;;;;;;;14.10;73.90;;;;;;5013040;28;20294;-89
2022/07/04 04:46:48;;;;;;;;;;;14.00;74.00;;;;;;5012695;28;19925;-88
2022/07/04 04:49:14;;;;;;;;;;;14.10;74.10;;;;;;5012485;28;20381;-89
2022/07/04 04:51:41;;;;;;;;;;;14.10;74.10;;;;;;5012833;28;19926;-90
2022/07/04 04:54:08;;;;;;;;;;;14.10;74.20;;;;;;5012555;28;19960;-89
2022/07/04 04:56:35;;;;;;;;;;;14.10;74.30;;;;;;5012828;28;19976;-90
2022/07/04 04:59:02;;;;;;;;;;;14.10;74.40;;;;;;5012460;28;19925;-90
2022/07/04 05:01:29;;;;;;;;;;;14.20;74.50;;;;;;5011646;28;19944;-89
2022/07/04 05:04:11;;;;;;;;;;;14.10;74.50;;;;;;5012216;28;20356;-90
2022/07/04 05:06:38;;;;;;;;;;;14.10;74.60;;;;;;5006678;28;20409;-89
2022/07/04 05:09:05;;;;;;;;;;;14.20;74.70;;;;;;5012260;28;20385;-89
2022/07/04 05:11:32;;;;;;;;;;;14.20;74.80;;;;;;5012821;28;19925;-88
2022/07/04 05:13:58;;;;;;;;;;;14.20;74.90;;;;;;5012797;28;20401;-90
2022/07/04 05:16:25;;;;;;;;;;;14.20;74.90;;;;;;4995261;28;19921;-89
2022/07/04 05:18:52;;;;;;;;;;;14.30;75.00;;;;;;5012952;28;19922;-89
2022/07/04 05:21:19;;;;;;;;;;;14.30;75.10;;;;;;5012137;28;19976;-88
2022/07/04 05:23:46;;;;;;;;;;;14.30;75.10;;;;;;5012366;28;19928;-89
2022/07/04 05:26:13;;;;;;;;;;;14.30;75.20;;;;;;5012532;28;19971;-89
2022/07/04 05:28:40;;;;;;;;;;;14.40;75.30;;;;;;5011049;28;19925;-89
2022/07/04 05:31:06;;;;;;;;;;;14.40;75.40;;;;;;5012294;28;19921;-90
2022/07/04 05:33:33;;;;;;;;;;;14.40;75.50;;;;;;5012616;28;19984;-89
2022/07/04 05:36:00;;;;;;;;;;;14.40;75.50;;;;;;5012130;28;20362;-89
2022/07/04 05:38:27;;;;;;;;;;;14.40;75.50;;;;;;5011032;28;19922;-89
2022/07/04 05:40:53;;;;;;;;;;;14.50;75.60;;;;;;5012427;28;20286;-89
2022/07/04 05:43:21;;;;;;;;;;;14.50;75.60;;;;;;5011309;28;19929;-89
2022/07/04 05:45:48;;;;;;;;;;;14.50;75.70;;;;;;5012077;28;20293;-87
2022/07/04 05:48:15;;;;;;;;;;;14.50;75.70;;;;;;5012087;28;19921;-92
2022/07/04 05:50:42;;;;;;;;;;;14.60;75.80;;;;;;5013123;28;19922;-92
2022/07/04 05:53:09;;;;;;;;;;;14.60;75.80;;;;;;5016626;28;19925;-90
2022/07/04 05:55:35;;;;;;;;;;;14.60;75.90;;;;;;5004310;28;19926;-91
2022/07/04 05:58:02;;;;;;;;;;;14.60;75.90;;;;;;5024388;28;19983;-90
2022/07/04 06:00:29;;;;;;;;;;;14.70;76.00;;;;;;5011124;28;19968;-91
2022/07/04 06:02:56;;;;;;;;;;;14.70;76.10;;;;;;5010192;28;20452;-91
2022/07/04 06:05:23;;;;;;;;;;;14.70;76.10;;;;;;5004837;28;19922;-91
2022/07/04 06:07:49;;;;;;;;;;;14.80;76.20;;;;;;5003309;28;19925;-91
2022/07/04 06:10:17;;;;;;;;;;;14.80;76.20;;;;;;5014069;28;19921;-94
2022/07/04 06:12:44;;;;;;;;;;;14.90;76.30;;;;;;5004537;28;19921;-90
2022/07/04 06:15:10;;;;;;;;;;;14.90;76.30;;;;;;4999707;28;19976;-91
2022/07/04 06:17:37;;;;;;;;;;;14.90;76.40;;;;;;5005926;28;19921;-90
2022/07/04 06:20:05;;;;;;;;;;;14.90;76.50;;;;;;5015435;28;19925;-91
2022/07/04 06:22:42;;;;;;;;;;;14.90;76.50;;;;;;5016108;28;19925;-90
2022/07/04 06:25:16;;;;;;;;;;;15.00;76.60;;;;;;5013122;28;19925;-89
2022/07/04 06:27:44;;;;;;;;;;;15.00;76.70;;;;;;5014285;28;19975;-90
2022/07/04 06:30:11;;;;;;;;;;;15.10;76.80;;;;;;5012904;28;19928;-87
2022/07/04 06:33:04;;;;;;;;;;;15.10;76.80;;;;;;5013235;28;19932;-88
2022/07/04 06:35:49;;;;;;;;;;;15.10;76.80;;;;;;5009653;28;20440;-88
2022/07/04 06:38:17;;;;;;;;;;;15.20;76.80;;;;;;5009428;28;19925;-88
2022/07/04 06:40:44;;;;;;;;;;;15.20;76.90;;;;;;5011187;28;19925;-87
2022/07/04 06:43:11;;;;;;;;;;;15.20;76.90;;;;;;5010247;28;19922;-87
2022/07/04 06:45:38;;;;;;;;;;;15.30;77.00;;;;;;4998962;28;19930;-87
2022/07/04 06:48:05;;;;;;;;;;;15.30;77.10;;;;;;5004954;28;19953;-88
2022/07/04 06:50:32;;;;;;;;;;;15.40;77.10;;;;;;5007109;28;19925;-87
2022/07/04 06:53:07;;;;;;;;;;;15.40;77.20;;;;;;5007398;28;19929;-88
2022/07/04 06:55:35;;;;;;;;;;;15.40;77.20;;;;;;5011119;28;19921;-87
2022/07/04 06:58:02;;;;;;;;;;;15.40;77.30;;;;;;5010063;28;19928;-87
2022/07/04 07:00:32;;;;;;;;;;;15.50;77.40;;;;;;5008177;28;19921;-88
2022/07/04 07:02:59;;;;;;;;;;;15.50;77.40;;;;;;5007428;28;19921;-87
2022/07/04 07:05:26;;;;;;;;;;;15.50;77.50;;;;;;5007318;28;19926;-87
2022/07/04 07:08:13;;;;;;;;;;;15.60;77.60;;;;;;5007299;28;19925;-87
2022/07/04 07:10:40;;;;;;;;;;;15.60;77.50;;;;;;5013236;28;19925;-87
2022/07/04 07:13:08;;;;;;;;;;;15.70;77.50;;;;;;5012979;28;20346;-87
2022/07/04 07:15:35;;;;;;;;;;;15.70;77.50;;;;;;5009157;28;19921;-88
2022/07/04 07:18:02;;;;;;;;;;;15.80;77.60;;;;;;5000949;28;19922;-88
2022/07/04 07:20:29;;;;;;;;;;;15.80;77.70;;;;;;4999127;28;20333;-87
2022/07/04 07:22:56;;;;;;;;;;;15.90;77.80;;;;;;5007561;28;19921;-87
2022/07/04 07:25:23;;;;;;;;;;;15.90;77.80;;;;;;5010751;28;20301;-87
2022/07/04 07:27:49;;;;;;;;;;;15.90;77.80;;;;;;5008796;28;20386;-87
2022/07/04 07:30:16;;;;;;;;;;;15.90;77.80;;;;;;5006846;28;19921;-87
2022/07/04 07:32:43;;;;;;;;;;;16.00;77.90;;;;;;5006343;28;19925;-87
2022/07/04 07:35:11;;;;;;;;;;;16.00;77.90;;;;;;5012874;28;19921;-87
2022/07/04 07:37:38;;;;;;;;;;;16.10;77.90;;;;;;5009709;28;20347;-87
2022/07/04 07:40:05;;;;;;;;;;;16.20;77.80;;;;;;5009294;28;19921;-86
2022/07/04 07:42:33;;;;;;;;;;;16.20;77.80;;;;;;5007375;28;19925;-87
2022/07/04 07:45:00;;;;;;;;;;;16.20;77.70;;;;;;5006112;28;19927;-87
2022/07/04 07:47:28;;;;;;;;;;;16.30;77.60;;;;;;5006268;28;19927;-87
2022/07/04 07:49:55;;;;;;;;;;;16.30;77.60;;;;;;5007032;28;19929;-87
2022/07/04 07:52:22;;;;;;;;;;;16.40;77.50;;;;;;5009467;28;19922;-87
2022/07/04 07:54:53;;;;;;;;;;;16.40;77.50;;;;;;5008794;28;19927;-87
2022/07/04 07:57:28;;;;;;;;;;;16.40;77.50;;;;;;4998080;28;20404;-87
2022/07/04 07:59:55;;;;;;;;;;;16.50;77.40;;;;;;5002444;28;19921;-87
2022/07/04 08:04:34;;;;;;;;;;;16.50;77.30;;;;;;5006251;28;19967;-87
2022/07/04 08:05:09;;;;;;;;;;;16.60;77.30;;;;;;5006082;28;19928;-87
2022/07/04 08:07:37;;;;;;;;;;;16.70;77.10;;;;;;5009531;28;19925;-87
2022/07/04 08:10:04;;;;;;;;;;;16.80;77.00;;;;;;5008892;28;20389;-87
2022/07/04 08:12:31;;;;;;;;;;;16.90;76.80;;;;;;5005191;28;19925;-86
2022/07/04 08:14:57;;;;;;;;;;;16.90;76.70;;;;;;5005786;28;20332;-87
2022/07/04 08:17:31;;;;;;;;;;;17.00;76.50;;;;;;5005810;28;19921;-87
2022/07/04 08:19:58;;;;;;;;;;;17.00;76.40;;;;;;5008321;28;20019;-86
2022/07/04 08:22:25;;;;;;;;;;;17.10;76.20;;;;;;4993818;28;20320;-87
2022/07/04 08:24:52;;;;;;;;;;;17.30;76.10;;;;;;4997534;28;19928;-86
2022/07/04 08:27:20;;;;;;;;;;;17.40;75.90;;;;;;5004604;28;19929;-87
2022/07/04 08:29:47;;;;;;;;;;;17.40;75.80;;;;;;5006058;28;19921;-86
2022/07/04 08:32:14;;;;;;;;;;;17.50;75.60;;;;;;5006046;28;20003;-87
2022/07/04 08:34:42;;;;;;;;;;;17.60;75.50;;;;;;5008923;28;20316;-86
2022/07/04 08:37:10;;;;;;;;;;;17.70;75.40;;;;;;5009500;28;19921;-87
2022/07/04 08:39:36;;;;;;;;;;;17.90;75.30;;;;;;4997513;28;19921;-87
2022/07/04 08:42:06;;;;;;;;;;;17.90;75.10;;;;;;4997277;28;19929;-87
2022/07/04 08:44:38;;;;;;;;;;;18.10;75.00;;;;;;4997399;28;20409;-86
2022/07/04 08:47:07;;;;;;;;;;;18.20;74.90;;;;;;4997396;28;19925;-86
2022/07/04 08:49:43;;;;;;;;;;;18.30;74.70;;;;;;4995141;28;20006;-87
